OIFK  Kashan Airport

Add Bookmark

Iran

Status
Operational
Latitude Longitude
33° 53' 43" N 51° 34' 37" E
33.895302 51.577000
Local (DST + 5) UTC (GMT + 4)
Oct 23, 2014 05:45 Oct 23, 2014 02:15
Sunrise-Sunset Local UTC
Begin Civil Twilight 05:48 02:18
Sunrise 06:14 02:44
Sunset 05:21 13:51
End Civil Twilight 05:47 14:17

Current Weather

METAR Observed VFR
OIFK 230200Z 00000KT CAVOK 09/06 Q1021 Thu, Oct 23, 2014 @ 02:00 UTC
(15 Minutes ago)
Visual Flight Rules
Wind Visibility Clouds Conditions
Calm 10 km or more
  • Clear skies
  • No significant weather
Temperatures Readings Precipitation
Current Temp 9°C (48°F)
Dewpoint 6°C (43°F)
Humidity 82%
Altimeter 30.15"Hg
Sea Level Pressure 1021mb
Field Elevation 3221.78'
None Recorded

Additional weather within a 185.2km radius of OIFK

Map ICAO Location
OIFM 129.8km S (168°)
OIHR 161.5km W (280°)
OIIE 173.3km N (347°)

24 Hour Weather History

Loading
-

24 Hour Weather Graphs

Loading
-

CheckWX.com is intended as a tool to help pilots better visualize weather data. It is not intended as a substitute for an official weather briefing obtained from a Flight Service Station. CheckWX.com does not meet the FAA requirements for an official pre-flight weather briefing. Therefore, it's important that pilots still call and obtain an official FSS pre-flight weather briefing.